Watertown Regional Airport
KATY : now visible

Airfield :











YOU CAN JOIN US ON...

 
LOGIN :

Register | Disclaimer

   EN    FR    IT 

 









Legend :    VFR   Marginal VFR   IFR   Intensive IFR   Very Intensive IFR
Visi :
Ceiling :
>= 8 km
>= 3000ft
5 to 8 km
1000 to 3000 ft
1500m to 5 km
500 to 1000 ft
800 to 1500m
200 to 500 ft
< 800m
< 200 ft
Symbols :   Thunderstorms  Fog  Heavy snow  Heavy precipitations  Wind > 20 kt






- Airport Elevation : 1749 ft
- IATA code : ATY


KATY - Watertown Regional

CURRENT METAR :
  • 041253Z AUTO 00000KT 10SM CLR 13/12 A3008 RMK AO2 SLP184 T01280117

EXPIRED METARs :
  • 041153Z AUTO 00000KT 10SM BKN065 13/12 A3008 RMK AO2 SLP186 70002 T01280117 10150 20128 55001
  • 041053Z AUTO 18006KT 10SM SCT120 13/12 A3007 RMK AO2 SLP179 T01330117

TAF KATY
Valid from the 04 at 12:00 until the 05 at 12:00 UTC


041128Z 0412/0512 VRB05KT P6SM OVC120
FM041700 VRB04KT P6SM VCSH OVC050
FM050500 VRB04KT P6SM BKN050
KZMP FIR / North America



MET'MAP, your aeronautical weather chart ! - Copyright ORBIFLY December 2007 - Disclaimer

ORBIFLY MET'MAP TEAM :

Programming & Development : Alexandra Zaïnal
Original concept : Baudouin d'Aumeries
Technical & hardware support : Manuel Goepfert
Assistance : Marc-Olivier Méhu




SOURCES & CREDITS :

   NOAA       Earth
Advisory